Time;durP1;ratioP1;P1;durP2;ratioP2;P2;SDS_P1;SDS_P2;PMS_P1;PMS_P2;Temp;Humidity;BMP_temperature;BMP_pressure;BME280_temperature;BME280_humidity;BME280_pressure;Samples;Min_cycle;Max_cycle;Signal;HPM_P1;HPM_P2
2021/06/21 00:00:49;;;;;;;1.30;0.80;;;24.70;63.30;;;;;;4998905;28;20052;-53
2021/06/21 00:03:15;;;;;;;1.50;1.02;;;24.70;63.40;;;;;;5005189;28;20050;-54
2021/06/21 00:05:41;;;;;;;1.27;0.88;;;24.70;63.40;;;;;;4996377;28;20072;-54
2021/06/21 00:08:06;;;;;;;1.77;0.75;;;24.70;63.40;;;;;;5000374;28;20122;-55
2021/06/21 00:10:32;;;;;;;1.02;0.90;;;24.70;63.40;;;;;;4984519;28;20046;-54
2021/06/21 00:12:58;;;;;;;0.98;0.80;;;24.70;63.30;;;;;;4994993;28;20050;-54
2021/06/21 00:15:25;;;;;;;1.10;0.80;;;24.70;63.40;;;;;;4994022;28;20523;-55
2021/06/21 00:17:50;;;;;;;2.80;0.65;;;24.70;63.30;;;;;;4994933;28;20526;-53
2021/06/21 00:20:17;;;;;;;1.92;0.77;;;24.70;63.30;;;;;;4994948;28;20062;-55
2021/06/21 00:22:43;;;;;;;0.77;0.70;;;24.70;63.40;;;;;;4993030;28;20066;-55
2021/06/21 00:25:09;;;;;;;1.38;0.80;;;24.70;63.00;;;;;;4999448;28;20096;-55
2021/06/21 00:27:35;;;;;;;1.05;0.80;;;24.70;63.00;;;;;;4998379;28;20050;-55
2021/06/21 00:30:02;;;;;;;1.13;0.93;;;24.80;63.00;;;;;;5005539;28;20054;-55
2021/06/21 00:32:28;;;;;;;0.95;0.88;;;24.70;63.00;;;;;;4996355;28;20046;-49
2021/06/21 00:34:54;;;;;;;1.05;0.90;;;24.70;63.00;;;;;;5010424;28;20053;-55
2021/06/21 00:37:19;;;;;;;0.75;0.70;;;24.70;62.90;;;;;;5000607;28;20500;-55
2021/06/21 00:39:45;;;;;;;0.70;0.70;;;24.70;62.80;;;;;;4997609;28;20054;-54
2021/06/21 00:42:10;;;;;;;1.58;0.93;;;24.70;62.70;;;;;;4998904;28;20038;-55
2021/06/21 00:44:36;;;;;;;1.45;0.70;;;24.70;62.70;;;;;;4997646;28;20496;-54
2021/06/21 00:47:02;;;;;;;1.33;0.60;;;24.70;62.70;;;;;;4994948;28;20524;-54
2021/06/21 00:49:27;;;;;;;1.70;1.00;;;24.70;62.60;;;;;;4997829;28;20054;-53
2021/06/21 00:51:53;;;;;;;0.63;0.60;;;24.70;62.60;;;;;;4998406;28;20505;-55
2021/06/21 00:54:19;;;;;;;1.02;0.60;;;24.70;62.60;;;;;;4998251;28;20045;-52
2021/06/21 00:56:45;;;;;;;0.88;0.80;;;24.70;62.60;;;;;;4994142;28;20061;-55
2021/06/21 00:59:10;;;;;;;1.17;0.90;;;24.70;62.60;;;;;;4994113;28;20041;-54
2021/06/21 01:01:36;;;;;;;1.88;0.98;;;24.70;62.40;;;;;;4997658;28;20043;-55
2021/06/21 01:04:02;;;;;;;1.20;0.70;;;24.70;62.20;;;;;;4998159;28;20129;-55
2021/06/21 01:06:28;;;;;;;0.60;0.60;;;24.70;62.30;;;;;;4997630;28;20112;-54
2021/06/21 01:08:54;;;;;;;0.90;0.80;;;24.80;62.10;;;;;;4998283;28;20126;-53
2021/06/21 01:11:19;;;;;;;1.30;0.80;;;24.80;62.10;;;;;;4995395;28;20137;-52
2021/06/21 01:13:57;;;;;;;0.70;0.60;;;24.80;62.00;;;;;;4994124;28;20054;-54
2021/06/21 01:16:43;;;;;;;0.77;0.75;;;24.80;61.80;;;;;;4995850;28;20042;-52
2021/06/21 01:19:23;;;;;;;0.63;0.60;;;24.80;62.00;;;;;;5010024;28;20452;-53
2021/06/21 01:22:19;;;;;;;0.70;0.57;;;24.80;62.00;;;;;;5012284;28;20568;-55
2021/06/21 01:25:08;;;;;;;0.98;0.60;;;24.80;61.90;;;;;;4997150;28;20041;-52
2021/06/21 01:27:54;;;;;;;0.45;0.45;;;24.80;61.90;;;;;;5012301;28;20513;-47
2021/06/21 01:30:59;;;;;;;0.68;0.63;;;24.80;61.80;;;;;;4997695;28;20050;-45
2021/06/21 01:33:24;;;;;;;0.90;0.60;;;24.80;61.80;;;;;;4979045;28;20134;-47
2021/06/21 01:36:03;;;;;;;1.20;0.60;;;24.70;61.90;;;;;;5012136;28;20133;-45
2021/06/21 01:38:31;;;;;;;0.70;0.63;;;24.70;61.80;;;;;;4994209;28;20054;-44
2021/06/21 01:40:58;;;;;;;1.02;0.55;;;24.70;61.80;;;;;;4993059;28;20053;-47
2021/06/21 01:43:26;;;;;;;1.92;0.40;;;24.70;61.90;;;;;;5012359;28;20034;-45
2021/06/21 01:45:52;;;;;;;0.65;0.55;;;24.60;62.00;;;;;;5012609;28;20049;-45
2021/06/21 01:48:17;;;;;;;0.70;0.60;;;24.60;62.00;;;;;;5020406;28;20042;-44
2021/06/21 01:50:43;;;;;;;1.98;0.63;;;24.60;62.00;;;;;;4991515;28;20134;-46
2021/06/21 01:53:14;;;;;;;0.57;0.50;;;24.60;62.00;;;;;;4986332;28;20039;-46
2021/06/21 01:55:49;;;;;;;0.77;0.57;;;24.60;62.10;;;;;;4999762;28;20042;-44
2021/06/21 01:58:14;;;;;;;0.77;0.40;;;24.60;62.10;;;;;;4980951;28;20039;-44
2021/06/21 02:00:40;;;;;;;2.05;0.50;;;24.60;62.00;;;;;;4990632;28;20493;-44
2021/06/21 02:03:06;;;;;;;1.52;0.40;;;24.60;62.10;;;;;;4989070;28;20043;-44
2021/06/21 02:05:33;;;;;;;0.70;0.52;;;24.60;62.10;;;;;;4971718;28;20505;-44
2021/06/21 02:07:59;;;;;;;0.45;0.32;;;24.50;62.80;;;;;;4981994;28;20046;-45
2021/06/21 02:10:24;;;;;;;0.45;0.40;;;24.60;62.10;;;;;;5000718;28;20055;-45
2021/06/21 02:12:50;;;;;;;1.25;0.70;;;24.50;62.10;;;;;;4989101;28;20055;-44
2021/06/21 02:15:16;;;;;;;0.50;0.50;;;24.50;62.30;;;;;;4976013;28;20053;-44
2021/06/21 02:17:42;;;;;;;0.60;0.50;;;24.50;62.10;;;;;;4999289;28;20082;-45
2021/06/21 02:20:08;;;;;;;1.02;0.60;;;24.50;62.20;;;;;;4971946;28;20050;-56
2021/06/21 02:22:34;;;;;;;0.50;0.40;;;24.40;62.20;;;;;;4984092;28;20054;-55
2021/06/21 02:25:01;;;;;;;0.65;0.63;;;24.40;62.20;;;;;;4993043;28;20051;-55
2021/06/21 02:27:26;;;;;;;0.60;0.50;;;24.40;62.20;;;;;;4993135;28;20421;-55
2021/06/21 02:29:52;;;;;;;0.32;0.30;;;24.50;62.40;;;;;;5008655;28;20054;-55
2021/06/21 02:32:18;;;;;;;0.52;0.52;;;24.40;62.30;;;;;;4989193;28;20043;-55
2021/06/21 02:34:44;;;;;;;0.50;0.50;;;24.40;62.30;;;;;;4995998;28;20130;-55
2021/06/21 02:37:10;;;;;;;0.60;0.43;;;24.40;62.20;;;;;;4967937;28;20517;-56
2021/06/21 02:39:35;;;;;;;0.52;0.52;;;24.40;62.20;;;;;;4957021;28;20595;-53
2021/06/21 02:42:01;;;;;;;0.50;0.50;;;24.40;62.10;;;;;;4957128;28;20054;-55
2021/06/21 02:44:27;;;;;;;1.05;0.40;;;24.40;62.10;;;;;;4955993;28;20114;-55
2021/06/21 02:46:52;;;;;;;0.50;0.32;;;24.40;62.10;;;;;;4954372;28;20039;-54
2021/06/21 02:49:18;;;;;;;0.68;0.43;;;24.40;61.90;;;;;;4961510;28;20054;-56
2021/06/21 02:51:47;;;;;;;0.47;0.40;;;24.40;61.90;;;;;;5011113;28;20880;-55
2021/06/21 02:54:21;;;;;;;0.40;0.30;;;24.40;61.90;;;;;;5005599;28;20046;-44
2021/06/21 02:57:08;;;;;;;1.23;0.40;;;24.50;61.90;;;;;;5005593;28;20056;-45
2021/06/21 02:59:36;;;;;;;0.40;0.40;;;24.50;61.80;;;;;;4994736;28;20121;-46
2021/06/21 03:02:02;;;;;;;0.35;0.35;;;24.40;61.90;;;;;;5007496;28;20050;-45
2021/06/21 03:04:27;;;;;;;0.50;0.30;;;24.40;62.00;;;;;;5011485;28;20046;-44
2021/06/21 03:06:53;;;;;;;0.57;0.38;;;24.30;62.00;;;;;;4984000;28;20053;-47
2021/06/21 03:09:19;;;;;;;0.50;0.40;;;24.40;61.90;;;;;;5010893;28;20046;-47
2021/06/21 03:11:44;;;;;;;1.15;0.40;;;24.40;61.90;;;;;;5009851;28;20042;-46
2021/06/21 03:14:10;;;;;;;0.40;0.40;;;24.40;61.80;;;;;;5007126;28;20033;-48
2021/06/21 03:16:36;;;;;;;0.57;0.30;;;24.40;61.70;;;;;;5010374;28;20056;-45
2021/06/21 03:19:01;;;;;;;0.45;0.30;;;24.40;61.80;;;;;;4994492;28;20069;-44
2021/06/21 03:21:27;;;;;;;1.35;0.50;;;24.40;61.70;;;;;;4998846;28;20046;-44
2021/06/21 03:23:53;;;;;;;0.82;0.40;;;24.30;62.60;;;;;;4995001;28;20073;-45
2021/06/21 03:26:24;;;;;;;0.85;0.52;;;24.40;61.80;;;;;;4992324;28;20038;-44
2021/06/21 03:28:49;;;;;;;0.65;0.40;;;24.30;61.80;;;;;;4998750;28;20090;-44
2021/06/21 03:31:15;;;;;;;1.10;0.47;;;24.30;61.80;;;;;;5010570;28;20424;-44
2021/06/21 03:33:40;;;;;;;0.45;0.40;;;24.30;61.80;;;;;;5012974;28;20132;-44
2021/06/21 03:36:06;;;;;;;0.63;0.40;;;24.30;62.50;;;;;;4995592;28;20045;-46
2021/06/21 03:38:32;;;;;;;0.70;0.40;;;24.30;61.70;;;;;;4994366;28;20479;-44
2021/06/21 03:40:59;;;;;;;0.57;0.32;;;24.30;61.80;;;;;;4991493;28;20055;-47
2021/06/21 03:43:25;;;;;;;0.40;0.40;;;24.30;61.80;;;;;;4995536;28;20061;-44
2021/06/21 03:45:52;;;;;;;0.65;0.47;;;24.30;61.80;;;;;;4994707;28;20416;-45
2021/06/21 03:48:18;;;;;;;0.80;0.60;;;24.30;61.90;;;;;;4995486;28;20129;-46
2021/06/21 03:50:43;;;;;;;0.40;0.40;;;24.20;61.70;;;;;;4994323;28;20045;-48
2021/06/21 03:53:09;;;;;;;0.40;0.35;;;24.20;61.80;;;;;;4991345;28;20050;-46
2021/06/21 03:55:35;;;;;;;0.85;0.60;;;24.20;61.80;;;;;;5005938;28;20504;-41
2021/06/21 03:58:00;;;;;;;0.77;0.50;;;24.30;61.80;;;;;;4995397;28;20078;-46
2021/06/21 04:00:27;;;;;;;0.60;0.50;;;24.20;61.80;;;;;;4995261;28;20039;-44
2021/06/21 04:02:53;;;;;;;0.73;0.63;;;24.30;61.70;;;;;;4994354;28;20037;-44
2021/06/21 04:05:19;;;;;;;0.50;0.50;;;24.20;61.80;;;;;;4992437;28;20067;-45
2021/06/21 04:07:45;;;;;;;0.90;0.50;;;24.20;61.80;;;;;;5020806;28;20061;-45
2021/06/21 04:10:15;;;;;;;0.50;0.40;;;24.20;61.90;;;;;;5004383;28;20479;-44
2021/06/21 04:12:41;;;;;;;1.20;0.30;;;24.10;61.80;;;;;;4997674;28;20081;-44
2021/06/21 04:15:09;;;;;;;0.70;0.65;;;24.20;61.70;;;;;;4995029;28;20133;-44
2021/06/21 04:17:35;;;;;;;0.65;0.35;;;24.20;61.60;;;;;;4994361;28;20508;-47
2021/06/21 04:20:01;;;;;;;0.95;0.50;;;24.20;61.90;;;;;;4993735;28;20041;-45
2021/06/21 04:22:27;;;;;;;0.55;0.40;;;24.10;61.70;;;;;;4995253;28;20046;-46
2021/06/21 04:24:52;;;;;;;0.60;0.50;;;24.20;61.80;;;;;;5001153;28;20424;-54
2021/06/21 04:27:18;;;;;;;0.77;0.68;;;24.20;61.70;;;;;;4990838;28;20045;-56
2021/06/21 04:29:43;;;;;;;0.38;0.38;;;24.20;61.50;;;;;;5003170;28;20491;-56
2021/06/21 04:32:09;;;;;;;0.55;0.55;;;24.20;61.70;;;;;;4985835;28;20039;-56
2021/06/21 04:34:35;;;;;;;0.50;0.38;;;24.20;61.60;;;;;;4985783;28;20039;-58
2021/06/21 04:37:00;;;;;;;0.60;0.40;;;24.20;61.50;;;;;;4983680;28;20042;-55
2021/06/21 04:39:35;;;;;;;0.82;0.40;;;24.30;61.40;;;;;;4986044;28;20441;-59
2021/06/21 04:42:02;;;;;;;2.60;0.38;;;24.20;61.50;;;;;;4985126;28;20065;-59
2021/06/21 04:44:28;;;;;;;1.00;0.60;;;24.10;61.70;;;;;;4991245;28;20011;-59
2021/06/21 04:46:54;;;;;;;0.68;0.50;;;24.10;62.10;;;;;;4987343;28;20417;-55
2021/06/21 04:49:20;;;;;;;1.10;0.70;;;24.10;62.10;;;;;;4986213;28;20058;-56
2021/06/21 04:51:46;;;;;;;1.08;0.70;;;24.10;62.90;;;;;;4996861;28;20408;-55
2021/06/21 04:54:12;;;;;;;0.70;0.60;;;24.20;62.20;;;;;;4991298;28;20042;-57
2021/06/21 04:56:38;;;;;;;6.72;0.88;;;24.20;62.30;;;;;;4987756;28;20050;-55
2021/06/21 04:59:04;;;;;;;0.68;0.60;;;24.20;62.50;;;;;;5027704;28;20088;-58
2021/06/21 05:01:30;;;;;;;3.65;0.80;;;24.30;62.30;;;;;;4991070;28;20050;-55
2021/06/21 05:04:00;;;;;;;1.98;0.88;;;24.30;62.20;;;;;;5004118;28;20053;-57
2021/06/21 05:06:27;;;;;;;2.35;1.00;;;24.20;62.20;;;;;;4994894;28;20080;-52
2021/06/21 05:08:52;;;;;;;1.52;0.85;;;24.20;62.40;;;;;;4981079;28;20532;-55
2021/06/21 05:11:18;;;;;;;2.55;0.80;;;24.20;62.00;;;;;;5006047;28;20133;-41
2021/06/21 05:13:43;;;;;;;1.98;1.10;;;24.10;62.40;;;;;;4993396;28;20497;-41
2021/06/21 05:16:10;;;;;;;6.88;1.10;;;24.20;62.50;;;;;;4993320;28;20026;-42
2021/06/21 05:18:37;;;;;;;1.92;0.88;;;24.10;62.00;;;;;;4991289;28;20022;-42
2021/06/21 05:21:02;;;;;;;3.90;1.00;;;24.00;62.40;;;;;;4991958;28;20130;-41
2021/06/21 05:23:28;;;;;;;2.13;0.90;;;24.00;62.70;;;;;;4990273;28;20098;-42
2021/06/21 05:25:53;;;;;;;2.88;0.80;;;24.00;62.60;;;;;;4992698;28;20109;-41
2021/06/21 05:28:19;;;;;;;2.63;1.05;;;24.00;62.60;;;;;;4993532;28;20064;-40
2021/06/21 05:30:45;;;;;;;3.40;1.25;;;24.00;62.60;;;;;;4992519;28;20042;-40
2021/06/21 05:33:10;;;;;;;1.55;1.05;;;23.90;62.50;;;;;;4992379;28;20093;-40
2021/06/21 05:35:36;;;;;;;2.80;0.98;;;24.00;62.70;;;;;;4992545;28;20022;-40
2021/06/21 05:38:01;;;;;;;3.08;1.30;;;23.90;62.50;;;;;;4991288;28;20884;-41
2021/06/21 05:40:27;;;;;;;5.45;1.50;;;23.90;62.60;;;;;;4994354;28;20428;-40
2021/06/21 05:42:52;;;;;;;1.75;1.00;;;23.90;62.90;;;;;;4992180;28;20061;-41
2021/06/21 05:45:18;;;;;;;3.83;1.00;;;23.80;62.90;;;;;;4992486;28;20027;-40
2021/06/21 05:47:44;;;;;;;6.03;1.50;;;23.90;62.90;;;;;;4993725;28;20272;-41
2021/06/21 05:50:10;;;;;;;1.58;0.82;;;23.90;62.90;;;;;;4993948;28;20104;-40
2021/06/21 05:52:36;;;;;;;2.35;0.98;;;23.80;62.80;;;;;;4993829;28;20129;-41
2021/06/21 05:55:02;;;;;;;1.85;1.00;;;23.80;62.90;;;;;;4992807;28;20117;-40
2021/06/21 05:57:28;;;;;;;3.40;1.00;;;23.70;63.00;;;;;;4990631;28;20485;-41
2021/06/21 05:59:54;;;;;;;2.72;1.00;;;23.70;63.00;;;;;;4990462;28;20463;-40
2021/06/21 06:02:20;;;;;;;4.55;0.82;;;23.70;63.20;;;;;;4992731;28;20026;-40
2021/06/21 06:04:46;;;;;;;2.40;1.00;;;23.70;63.30;;;;;;4993165;28;20038;-39
2021/06/21 06:07:11;;;;;;;2.92;1.20;;;23.70;63.40;;;;;;4990224;28;20026;-40
2021/06/21 06:09:37;;;;;;;2.00;1.10;;;23.70;63.40;;;;;;4992657;28;20071;-39
2021/06/21 06:12:03;;;;;;;4.55;1.17;;;23.70;63.20;;;;;;4992656;28;20370;-40
2021/06/21 06:14:29;;;;;;;4.78;1.40;;;23.70;63.10;;;;;;4974826;28;20045;-40
2021/06/21 06:16:55;;;;;;;2.35;0.95;;;23.80;62.90;;;;;;4992472;28;20030;-39
2021/06/21 06:19:21;;;;;;;3.53;1.25;;;23.80;62.90;;;;;;4993043;28;20113;-42
2021/06/21 06:21:47;;;;;;;2.65;1.15;;;23.70;63.00;;;;;;4991898;28;20034;-41
2021/06/21 06:24:13;;;;;;;2.03;1.10;;;23.70;63.10;;;;;;4992012;28;20018;-41
2021/06/21 06:26:43;;;;;;;3.30;1.33;;;23.70;63.00;;;;;;4989992;28;20556;-41
2021/06/21 06:29:12;;;;;;;3.00;1.17;;;23.80;62.90;;;;;;4990828;28;20027;-41
2021/06/21 06:31:38;;;;;;;2.53;0.93;;;23.80;62.80;;;;;;4991132;28;20034;-41
2021/06/21 06:34:04;;;;;;;3.85;1.30;;;23.80;62.90;;;;;;4992415;28;20030;-41
2021/06/21 06:36:29;;;;;;;2.47;1.20;;;23.80;62.90;;;;;;4991942;28;20065;-41
2021/06/21 06:38:55;;;;;;;2.70;1.17;;;23.80;62.80;;;;;;4992084;28;20035;-41
2021/06/21 06:41:21;;;;;;;3.63;1.30;;;23.80;62.80;;;;;;4992078;28;20034;-41
2021/06/21 06:43:46;;;;;;;4.18;1.40;;;23.70;62.90;;;;;;4992749;28;20030;-41
2021/06/21 06:46:12;;;;;;;2.50;1.10;;;23.70;63.20;;;;;;4991886;28;20174;-41
2021/06/21 06:48:38;;;;;;;4.25;1.38;;;23.70;63.20;;;;;;4990559;28;20444;-43
2021/06/21 06:51:04;;;;;;;3.28;1.48;;;23.70;63.50;;;;;;4990153;28;20050;-39
2021/06/21 06:53:40;;;;;;;3.33;1.10;;;23.70;63.60;;;;;;4970489;28;20033;-42
2021/06/21 06:58:50;;;;;;;2.08;1.05;;;23.70;64.00;;;;;;4992815;28;20017;-41
2021/06/21 07:01:15;;;;;;;3.60;1.48;;;23.70;63.80;;;;;;4991691;28;20385;-42
2021/06/21 07:03:41;;;;;;;5.55;1.55;;;23.80;63.80;;;;;;4991865;28;20022;-41
2021/06/21 07:06:07;;;;;;;2.78;1.50;;;23.80;63.60;;;;;;4992933;28;20018;-41
2021/06/21 07:08:33;;;;;;;4.00;1.40;;;23.80;63.80;;;;;;4975745;28;20034;-40
2021/06/21 07:10:58;;;;;;;1.67;1.10;;;23.80;63.80;;;;;;4992734;28;20038;-40
2021/06/21 07:13:24;;;;;;;2.97;1.63;;;23.80;63.70;;;;;;4991997;28;20019;-42
2021/06/21 07:15:50;;;;;;;2.53;1.35;;;23.70;63.90;;;;;;4989751;28;20034;-41
2021/06/21 07:18:15;;;;;;;2.10;1.02;;;23.70;63.70;;;;;;4991857;28;20556;-40
2021/06/21 07:20:41;;;;;;;3.50;1.45;;;23.70;63.80;;;;;;4990846;28;20026;-41
2021/06/21 07:23:06;;;;;;;2.08;1.50;;;23.80;63.80;;;;;;4991335;28;20121;-41
2021/06/21 07:25:32;;;;;;;3.65;1.20;;;23.70;63.80;;;;;;4992361;28;20026;-42
2021/06/21 07:27:58;;;;;;;3.45;1.45;;;23.70;63.90;;;;;;4991886;28;20062;-41
2021/06/21 07:30:23;;;;;;;4.10;1.15;;;23.70;63.90;;;;;;4991371;28;20109;-41
2021/06/21 07:32:49;;;;;;;3.70;1.10;;;23.70;63.80;;;;;;4988631;28;20056;-41
2021/06/21 07:35:15;;;;;;;5.00;1.50;;;23.70;63.90;;;;;;4990791;28;20046;-42
2021/06/21 07:37:40;;;;;;;2.28;1.45;;;23.70;63.70;;;;;;4991288;28;20426;-41
2021/06/21 07:40:06;;;;;;;1.77;1.17;;;23.70;63.60;;;;;;4991306;28;20608;-42
2021/06/21 07:42:33;;;;;;;3.50;1.63;;;23.70;63.80;;;;;;4990732;28;20084;-43
2021/06/21 07:44:59;;;;;;;2.20;1.10;;;23.70;63.80;;;;;;4991278;28;20105;-42
2021/06/21 07:47:25;;;;;;;2.75;1.13;;;23.80;63.70;;;;;;4990487;28;20531;-43
2021/06/21 07:49:50;;;;;;;1.50;1.20;;;23.80;63.80;;;;;;4991114;28;20058;-43
2021/06/21 07:52:16;;;;;;;1.67;1.00;;;23.70;63.90;;;;;;4992145;28;20054;-42
2021/06/21 07:54:42;;;;;;;2.80;1.35;;;23.80;64.00;;;;;;4990530;28;20112;-41
2021/06/21 07:57:07;;;;;;;3.20;1.38;;;23.80;64.00;;;;;;4990614;28;20023;-41
2021/06/21 07:59:33;;;;;;;3.30;1.52;;;23.80;63.80;;;;;;4989892;28;20219;-42
2021/06/21 08:01:59;;;;;;;2.53;1.45;;;23.90;63.80;;;;;;4990485;28;20027;-40
2021/06/21 08:04:24;;;;;;;2.40;1.10;;;23.90;63.80;;;;;;4990708;28;20604;-41
2021/06/21 08:06:50;;;;;;;1.65;1.10;;;23.90;63.80;;;;;;4990581;28;20050;-42
2021/06/21 08:09:15;;;;;;;2.70;1.00;;;23.90;64.00;;;;;;4991464;28;20043;-41
2021/06/21 08:11:41;;;;;;;3.17;1.40;;;24.00;63.80;;;;;;4991611;28;20165;-41
2021/06/21 08:14:06;;;;;;;2.03;1.17;;;24.00;63.20;;;;;;4991956;28;20030;-41
2021/06/21 08:16:32;;;;;;;2.17;1.20;;;24.10;63.60;;;;;;4992152;28;20026;-41
2021/06/21 08:18:58;;;;;;;1.58;1.02;;;24.10;63.60;;;;;;4991633;28;20029;-41
2021/06/21 08:21:24;;;;;;;2.20;1.40;;;24.00;63.70;;;;;;4973940;28;20511;-41
2021/06/21 08:23:50;;;;;;;1.60;0.95;;;23.90;63.40;;;;;;4991490;28;20090;-42
2021/06/21 08:26:15;;;;;;;2.63;1.05;;;23.90;63.20;;;;;;4991954;28;20027;-41
2021/06/21 08:28:41;;;;;;;2.40;1.25;;;23.90;63.90;;;;;;4991492;28;20412;-41
2021/06/21 08:31:06;;;;;;;2.35;1.27;;;23.90;63.60;;;;;;4991084;28;20034;-41
2021/06/21 08:33:32;;;;;;;3.53;1.23;;;23.90;63.80;;;;;;4991294;28;20401;-41
2021/06/21 08:35:57;;;;;;;3.38;1.50;;;24.00;63.40;;;;;;4991578;28;20027;-42
2021/06/21 08:38:23;;;;;;;2.17;1.38;;;24.00;63.60;;;;;;4991653;28;20393;-41
2021/06/21 08:40:49;;;;;;;1.80;0.98;;;24.00;63.60;;;;;;4991765;28;20039;-41
2021/06/21 08:43:14;;;;;;;1.30;0.82;;;24.00;63.40;;;;;;4991748;28;20489;-41
2021/06/21 08:45:40;;;;;;;1.45;0.95;;;24.00;63.50;;;;;;4994296;28;20030;-42
2021/06/21 08:48:07;;;;;;;1.63;1.20;;;24.20;63.00;;;;;;4995410;28;20073;-43
2021/06/21 08:50:33;;;;;;;1.55;1.00;;;24.30;63.00;;;;;;4995054;28;20058;-41
2021/06/21 08:52:59;;;;;;;1.42;0.90;;;24.40;62.80;;;;;;4994658;28;20030;-42
2021/06/21 08:55:24;;;;;;;1.67;0.90;;;24.80;62.10;;;;;;5010746;28;20033;-42
2021/06/21 08:57:50;;;;;;;2.25;0.90;;;24.90;61.50;;;;;;4995001;28;20038;-42
2021/06/21 09:00:17;;;;;;;1.75;0.85;;;24.90;61.50;;;;;;4994955;28;20022;-40
2021/06/21 09:02:43;;;;;;;1.48;0.95;;;24.70;61.90;;;;;;4994792;28;20030;-45
2021/06/21 09:05:10;;;;;;;1.75;0.90;;;25.00;61.60;;;;;;4977567;28;20030;-42
2021/06/21 09:07:35;;;;;;;1.00;0.80;;;25.10;61.50;;;;;;4995448;28;20026;-42
2021/06/21 09:10:05;;;;;;;2.47;0.73;;;24.90;61.50;;;;;;4994958;28;20061;-42
2021/06/21 09:12:31;;;;;;;1.05;0.75;;;24.80;61.70;;;;;;4994463;28;20505;-42
2021/06/21 09:14:58;;;;;;;1.05;0.70;;;25.10;61.50;;;;;;4994724;28;20507;-42
2021/06/21 09:17:25;;;;;;;1.67;0.88;;;25.10;61.30;;;;;;4994977;28;20385;-42
2021/06/21 09:19:59;;;;;;;1.27;0.80;;;25.00;61.20;;;;;;4994405;28;20081;-42
2021/06/21 09:22:50;;;;;;;2.53;0.77;;;25.00;61.20;;;;;;4993516;28;20030;-43
2021/06/21 09:25:16;;;;;;;1.17;0.85;;;24.80;61.90;;;;;;4993896;28;20500;-42
2021/06/21 09:27:43;;;;;;;1.45;0.75;;;24.70;62.30;;;;;;4993125;28;20029;-42
2021/06/21 09:30:10;;;;;;;1.10;0.80;;;24.70;62.30;;;;;;4975384;28;20050;-41
2021/06/21 09:32:46;;;;;;;1.10;0.80;;;24.70;62.00;;;;;;4992902;28;20515;-42
2021/06/21 09:35:32;;;;;;;1.38;0.75;;;24.90;61.90;;;;;;4993232;28;20030;-43
2021/06/21 09:38:07;;;;;;;1.00;0.70;;;24.90;61.30;;;;;;4994032;28;20378;-42
2021/06/21 09:40:50;;;;;;;1.20;0.90;;;25.00;61.10;;;;;;4994528;28;20042;-43
2021/06/21 09:43:44;;;;;;;0.90;0.75;;;24.90;61.10;;;;;;4993030;28;20031;-42
2021/06/21 09:46:10;;;;;;;;;;;24.80;61.60;;;;;;4975549;28;20523;-43
2021/06/21 09:48:49;;;;;;;0.70;0.60;;;24.90;61.40;;;;;;4993423;28;19909;-43
2021/06/21 09:51:33;;;;;;;0.77;0.57;;;24.90;61.30;;;;;;4952965;29;20043;-42
2021/06/21 09:54:11;;;;;;;1.30;0.98;;;25.00;61.20;;;;;;4954596;29;20560;-42
2021/06/21 09:56:46;;;;;;;0.68;0.57;;;25.00;60.70;;;;;;4951980;29;20412;-42
2021/06/21 09:59:27;;;;;;;1.35;0.80;;;25.00;60.80;;;;;;4954076;29;20036;-42
2021/06/21 10:02:00;;;;;;;1.05;0.70;;;25.00;61.10;;;;;;4954269;29;20050;-40
2021/06/21 10:04:26;;;;;;;1.90;0.77;;;25.00;61.00;;;;;;4954173;29;20023;-43
2021/06/21 10:06:53;;;;;;;1.73;0.85;;;25.00;61.00;;;;;;4954742;29;20028;-42
2021/06/21 10:09:18;;;;;;;0.65;0.60;;;25.00;61.10;;;;;;4954758;29;20020;-42
2021/06/21 10:11:45;;;;;;;1.48;0.73;;;25.00;61.50;;;;;;4954120;29;20098;-44
2021/06/21 10:14:16;;;;;;;0.90;0.50;;;24.90;61.10;;;;;;4952341;29;20043;-40
2021/06/21 10:16:42;;;;;;;0.88;0.55;;;24.90;61.70;;;;;;4951497;29;20090;-42
2021/06/21 10:19:07;;;;;;;1.27;0.65;;;25.00;61.40;;;;;;4955152;29;20027;-42
2021/06/21 10:21:34;;;;;;;0.55;0.55;;;25.10;61.70;;;;;;4954848;29;20043;-42
2021/06/21 10:24:00;;;;;;;0.88;0.60;;;25.30;61.00;;;;;;4954712;29;20569;-42
2021/06/21 10:26:25;;;;;;;0.68;0.60;;;25.30;61.10;;;;;;4954659;29;20140;-42
2021/06/21 10:28:52;;;;;;;0.75;0.50;;;25.20;60.90;;;;;;4953293;29;20102;-42
2021/06/21 10:31:24;;;;;;;0.77;0.65;;;25.00;61.00;;;;;;4954948;29;20414;-41
2021/06/21 10:33:50;;;;;;;1.15;0.60;;;25.10;60.90;;;;;;4954413;29;20532;-41
2021/06/21 10:36:16;;;;;;;0.80;0.52;;;25.10;60.90;;;;;;4953554;29;20031;-41
2021/06/21 10:38:41;;;;;;;0.65;0.60;;;25.20;60.70;;;;;;4954550;29;20513;-41
2021/06/21 10:41:07;;;;;;;1.92;0.50;;;25.20;61.00;;;;;;4944392;29;20492;-42
2021/06/21 10:43:43;;;;;;;1.17;0.50;;;25.20;61.40;;;;;;4942250;28;20031;-41
2021/06/21 10:46:14;;;;;;;0.73;0.50;;;25.30;60.70;;;;;;4943276;28;20050;-41
2021/06/21 10:48:59;;;;;;;0.70;0.45;;;25.30;60.70;;;;;;4939972;29;20031;-42
2021/06/21 10:51:43;;;;;;;0.85;0.60;;;25.30;60.70;;;;;;4959961;28;20047;-43
2021/06/21 10:54:22;;;;;;;0.65;0.50;;;25.40;60.40;;;;;;4959861;28;20133;-41
2021/06/21 10:56:48;;;;;;;0.70;0.50;;;25.50;60.10;;;;;;4960629;28;20066;-42
2021/06/21 10:59:15;;;;;;;0.95;0.65;;;25.40;59.90;;;;;;4959982;28;20035;-49
2021/06/21 11:01:48;;;;;;;0.82;0.40;;;25.10;60.90;;;;;;4958816;28;20042;-45
2021/06/21 11:04:32;;;;;;;0.50;0.43;;;25.40;60.30;;;;;;4957836;28;20114;-41
2021/06/21 11:07:10;;;;;;;0.55;0.55;;;25.30;60.70;;;;;;4956668;28;20035;-44
2021/06/21 11:09:41;;;;;;;1.00;0.60;;;25.10;60.90;;;;;;4963128;28;20046;-48
2021/06/21 11:12:23;;;;;;;0.65;0.50;;;25.10;61.10;;;;;;4971438;28;20089;-45
2021/06/21 11:15:04;;;;;;;1.05;0.40;;;25.10;60.80;;;;;;4971795;28;20029;-46
2021/06/21 11:17:32;;;;;;;1.50;0.70;;;25.00;61.20;;;;;;4972205;28;20035;-47
2021/06/21 11:19:57;;;;;;;1.73;0.45;;;25.00;61.00;;;;;;4971961;28;20030;-45
2021/06/21 11:22:43;;;;;;;0.70;0.50;;;25.00;61.20;;;;;;4972866;28;20034;-45
2021/06/21 11:25:47;;;;;;;0.68;0.50;;;25.00;60.90;;;;;;4972286;28;20042;-44
2021/06/21 11:28:48;;;;;;;0.52;0.40;;;25.10;60.70;;;;;;4912870;29;20039;-46
2021/06/21 11:31:23;;;;;;;0.70;0.30;;;25.00;60.70;;;;;;4912546;29;20061;-45
2021/06/21 11:33:55;;;;;;;2.38;0.40;;;25.00;60.60;;;;;;4911167;29;20056;-46
2021/06/21 11:36:39;;;;;;;0.47;0.40;;;24.90;61.10;;;;;;4911159;29;20032;-45
2021/06/21 11:39:19;;;;;;;0.60;0.40;;;24.90;61.20;;;;;;4910868;29;20040;-46
2021/06/21 11:41:59;;;;;;;0.50;0.50;;;24.80;61.30;;;;;;4910974;29;20555;-45
2021/06/21 11:44:39;;;;;;;0.50;0.30;;;24.80;61.30;;;;;;4910463;29;20486;-46
2021/06/21 11:47:14;;;;;;;0.30;0.30;;;24.70;61.40;;;;;;4911334;29;20024;-46
2021/06/21 11:49:44;;;;;;;0.40;0.32;;;24.60;61.70;;;;;;4910314;29;20052;-45
2021/06/21 11:52:12;;;;;;;0.88;0.40;;;24.70;61.60;;;;;;4910037;29;20047;-44
2021/06/21 11:54:39;;;;;;;0.38;0.32;;;24.60;61.70;;;;;;4879799;29;20030;-45
2021/06/21 11:57:05;;;;;;;0.90;0.30;;;24.60;61.90;;;;;;4909810;29;20651;-45
2021/06/21 11:59:36;;;;;;;0.40;0.30;;;24.60;62.00;;;;;;4912129;29;20071;-46
2021/06/21 12:02:04;;;;;;;1.90;0.32;;;24.60;62.10;;;;;;4939289;28;20043;-46
2021/06/21 12:04:29;;;;;;;0.50;0.32;;;24.60;62.10;;;;;;4971031;28;20409;-42
2021/06/21 12:06:55;;;;;;;0.47;0.40;;;24.70;62.00;;;;;;4971128;28;20030;-46
2021/06/21 12:09:21;;;;;;;0.73;0.38;;;24.70;61.90;;;;;;4971771;28;20034;-46
2021/06/21 12:11:51;;;;;;;0.40;0.30;;;24.60;62.90;;;;;;4970845;28;20033;-43
2021/06/21 12:14:19;;;;;;;0.77;0.40;;;24.60;62.00;;;;;;4970302;28;20145;-45
2021/06/21 12:16:45;;;;;;;1.77;0.40;;;24.60;62.20;;;;;;4971236;28;20500;-46
2021/06/21 12:19:10;;;;;;;0.50;0.50;;;24.60;62.00;;;;;;4973134;28;20074;-45
2021/06/21 12:21:42;;;;;;;0.52;0.40;;;24.60;62.10;;;;;;4975812;28;20034;-45
2021/06/21 12:24:26;;;;;;;0.45;0.43;;;24.50;62.40;;;;;;4973095;28;20035;-45
2021/06/21 12:27:12;;;;;;;1.15;0.40;;;24.50;62.60;;;;;;4975388;28;20058;-45
2021/06/21 12:29:39;;;;;;;1.20;0.30;;;24.50;62.50;;;;;;4974479;28;20090;-45
2021/06/21 12:32:06;;;;;;;1.00;0.40;;;24.50;62.70;;;;;;4973244;28;20027;-46
2021/06/21 12:34:41;;;;;;;0.50;0.50;;;24.50;62.80;;;;;;4972576;28;20088;-45
2021/06/21 12:37:11;;;;;;;0.50;0.40;;;24.40;62.80;;;;;;4973610;28;20027;-44
2021/06/21 12:39:37;;;;;;;0.93;0.40;;;24.50;62.50;;;;;;4971981;28;20033;-46
2021/06/21 12:42:11;;;;;;;0.77;0.40;;;24.50;62.50;;;;;;4971041;28;20409;-45
2021/06/21 12:44:36;;;;;;;0.70;0.40;;;24.60;62.20;;;;;;4973141;28;20402;-46
2021/06/21 12:47:23;;;;;;;0.47;0.30;;;24.50;62.50;;;;;;4970981;28;20497;-44
2021/06/21 12:49:49;;;;;;;0.32;0.30;;;24.40;62.60;;;;;;4980270;28;20058;-45
2021/06/21 12:52:17;;;;;;;0.47;0.30;;;24.40;62.80;;;;;;4972809;28;20026;-46
2021/06/21 12:54:43;;;;;;;0.28;0.28;;;24.40;62.80;;;;;;4994366;28;20069;-48
2021/06/21 12:57:08;;;;;;;0.35;0.22;;;24.40;62.90;;;;;;4961407;28;20049;-46